sensor_id;sensor_type;location;lat;lon;timestamp;temperature;humidity
463;DHT22;218;51.902;9.542;2023-07-16T00:01:53;25.40;1.00
463;DHT22;218;51.902;9.542;2023-07-16T00:04:20;25.30;1.00
463;DHT22;218;51.902;9.542;2023-07-16T00:06:47;25.30;1.00
463;DHT22;218;51.902;9.542;2023-07-16T00:09:13;25.30;1.00
463;DHT22;218;51.902;9.542;2023-07-16T00:11:42;25.30;1.00
463;DHT22;218;51.902;9.542;2023-07-16T00:14:10;25.30;1.00
463;DHT22;218;51.902;9.542;2023-07-16T00:16:37;25.30;1.00
463;DHT22;218;51.902;9.542;2023-07-16T00:19:04;25.40;1.00
463;DHT22;218;51.902;9.542;2023-07-16T00:21:31;25.30;1.00
463;DHT22;218;51.902;9.542;2023-07-16T00:23:59;25.30;1.00
463;DHT22;218;51.902;9.542;2023-07-16T00:26:26;25.30;1.00
463;DHT22;218;51.902;9.542;2023-07-16T00:28:54;25.30;1.00
463;DHT22;218;51.902;9.542;2023-07-16T00:31:21;25.30;1.00
463;DHT22;218;51.902;9.542;2023-07-16T00:33:48;25.30;1.00
463;DHT22;218;51.902;9.542;2023-07-16T00:36:15;25.40;1.00
463;DHT22;218;51.902;9.542;2023-07-16T00:38:42;25.40;1.00
463;DHT22;218;51.902;9.542;2023-07-16T00:41:10;25.40;1.00
463;DHT22;218;51.902;9.542;2023-07-16T00:43:37;25.40;1.00
463;DHT22;218;51.902;9.542;2023-07-16T00:46:06;25.40;1.00
463;DHT22;218;51.902;9.542;2023-07-16T00:48:33;25.40;1.00
463;DHT22;218;51.902;9.542;2023-07-16T00:51:01;25.40;1.00
463;DHT22;218;51.902;9.542;2023-07-16T00:53:30;25.40;1.00
463;DHT22;218;51.902;9.542;2023-07-16T00:55:57;25.40;1.00
463;DHT22;218;51.902;9.542;2023-07-16T00:58:24;25.40;1.00
463;DHT22;218;51.902;9.542;2023-07-16T01:00:51;25.40;1.00
463;DHT22;218;51.902;9.542;2023-07-16T01:03:19;25.40;1.00
463;DHT22;218;51.902;9.542;2023-07-16T01:05:49;25.40;1.00
463;DHT22;218;51.902;9.542;2023-07-16T01:08:24;25.30;1.00
463;DHT22;218;51.902;9.542;2023-07-16T01:10:53;25.30;1.00
463;DHT22;218;51.902;9.542;2023-07-16T01:13:21;25.30;1.00
463;DHT22;218;51.902;9.542;2023-07-16T01:15:49;25.30;1.00
463;DHT22;218;51.902;9.542;2023-07-16T01:18:16;25.30;1.00
463;DHT22;218;51.902;9.542;2023-07-16T01:20:44;25.30;1.00
463;DHT22;218;51.902;9.542;2023-07-16T01:26:05;25.30;1.00
463;DHT22;218;51.902;9.542;2023-07-16T01:28:50;25.30;1.00
463;DHT22;218;51.902;9.542;2023-07-16T01:31:22;25.30;1.00
463;DHT22;218;51.902;9.542;2023-07-16T01:33:51;25.30;1.00
463;DHT22;218;51.902;9.542;2023-07-16T01:36:18;25.30;1.00
463;DHT22;218;51.902;9.542;2023-07-16T01:38:46;25.30;1.00
463;DHT22;218;51.902;9.542;2023-07-16T01:41:13;25.30;1.00
463;DHT22;218;51.902;9.542;2023-07-16T01:43:40;25.30;1.00
463;DHT22;218;51.902;9.542;2023-07-16T01:46:08;25.30;1.00
463;DHT22;218;51.902;9.542;2023-07-16T01:48:37;25.30;1.00
463;DHT22;218;51.902;9.542;2023-07-16T01:51:04;25.30;1.00
463;DHT22;218;51.902;9.542;2023-07-16T01:53:32;25.30;1.00
463;DHT22;218;51.902;9.542;2023-07-16T01:56:00;25.30;1.00
463;DHT22;218;51.902;9.542;2023-07-16T01:58:27;25.30;1.00
463;DHT22;218;51.902;9.542;2023-07-16T02:00:54;25.30;1.00
463;DHT22;218;51.902;9.542;2023-07-16T02:03:21;25.30;1.00
463;DHT22;218;51.902;9.542;2023-07-16T02:05:49;25.30;1.00
463;DHT22;218;51.902;9.542;2023-07-16T02:08:16;25.30;1.00
463;DHT22;218;51.902;9.542;2023-07-16T02:10:44;25.30;1.00
463;DHT22;218;51.902;9.542;2023-07-16T02:13:11;25.30;1.00
463;DHT22;218;51.902;9.542;2023-07-16T02:15:38;25.30;1.00
463;DHT22;218;51.902;9.542;2023-07-16T02:18:05;25.30;1.00
463;DHT22;218;51.902;9.542;2023-07-16T02:20:32;25.20;1.00
463;DHT22;218;51.902;9.542;2023-07-16T02:23:00;25.20;1.00
463;DHT22;218;51.902;9.542;2023-07-16T02:25:28;25.20;1.00
463;DHT22;218;51.902;9.542;2023-07-16T02:27:55;25.10;1.00
463;DHT22;218;51.902;9.542;2023-07-16T02:30:22;25.00;1.00
463;DHT22;218;51.902;9.542;2023-07-16T02:32:49;25.00;1.00
463;DHT22;218;51.902;9.542;2023-07-16T02:35:16;24.90;1.00
463;DHT22;218;51.902;9.542;2023-07-16T02:37:43;24.90;1.00
463;DHT22;218;51.902;9.542;2023-07-16T02:40:11;24.90;1.00
463;DHT22;218;51.902;9.542;2023-07-16T02:42:38;24.80;1.00
463;DHT22;218;51.902;9.542;2023-07-16T02:45:06;24.80;1.00
463;DHT22;218;51.902;9.542;2023-07-16T02:47:33;24.80;1.00
463;DHT22;218;51.902;9.542;2023-07-16T02:50:00;24.70;1.00
463;DHT22;218;51.902;9.542;2023-07-16T02:52:28;24.70;1.00
463;DHT22;218;51.902;9.542;2023-07-16T02:54:54;24.70;1.00
463;DHT22;218;51.902;9.542;2023-07-16T02:57:23;24.60;1.00
463;DHT22;218;51.902;9.542;2023-07-16T02:59:50;24.60;1.00
463;DHT22;218;51.902;9.542;2023-07-16T03:02:16;24.60;1.00
463;DHT22;218;51.902;9.542;2023-07-16T03:04:43;24.50;1.00
463;DHT22;218;51.902;9.542;2023-07-16T03:07:10;24.50;1.00
463;DHT22;218;51.902;9.542;2023-07-16T03:09:37;24.50;1.00
463;DHT22;218;51.902;9.542;2023-07-16T03:12:05;24.50;1.00
463;DHT22;218;51.902;9.542;2023-07-16T03:14:34;24.40;1.00
463;DHT22;218;51.902;9.542;2023-07-16T03:17:00;24.50;1.00
463;DHT22;218;51.902;9.542;2023-07-16T03:19:27;24.40;1.00
463;DHT22;218;51.902;9.542;2023-07-16T03:21:54;24.30;1.00
463;DHT22;218;51.902;9.542;2023-07-16T03:24:21;24.30;1.00
463;DHT22;218;51.902;9.542;2023-07-16T03:26:48;24.30;1.00
463;DHT22;218;51.902;9.542;2023-07-16T03:29:15;24.30;1.00
463;DHT22;218;51.902;9.542;2023-07-16T03:31:43;24.20;1.00
463;DHT22;218;51.902;9.542;2023-07-16T03:34:10;24.20;1.00
463;DHT22;218;51.902;9.542;2023-07-16T03:36:37;24.10;1.00
463;DHT22;218;51.902;9.542;2023-07-16T03:39:04;24.10;1.00
463;DHT22;218;51.902;9.542;2023-07-16T03:41:31;24.00;1.00
463;DHT22;218;51.902;9.542;2023-07-16T03:43:59;24.00;1.00
463;DHT22;218;51.902;9.542;2023-07-16T03:46:26;24.00;1.00
463;DHT22;218;51.902;9.542;2023-07-16T03:48:54;23.90;1.00
463;DHT22;218;51.902;9.542;2023-07-16T03:51:21;23.90;1.00
463;DHT22;218;51.902;9.542;2023-07-16T03:53:48;23.80;1.00
463;DHT22;218;51.902;9.542;2023-07-16T03:56:15;23.80;1.00
463;DHT22;218;51.902;9.542;2023-07-16T03:58:42;23.80;1.00
463;DHT22;218;51.902;9.542;2023-07-16T04:01:09;23.70;1.00
463;DHT22;218;51.902;9.542;2023-07-16T04:03:36;23.70;1.00
463;DHT22;218;51.902;9.542;2023-07-16T04:06:05;23.70;1.00
463;DHT22;218;51.902;9.542;2023-07-16T04:08:34;23.70;1.00
463;DHT22;218;51.902;9.542;2023-07-16T04:11:02;23.60;1.00
463;DHT22;218;51.902;9.542;2023-07-16T04:13:29;23.70;1.00
463;DHT22;218;51.902;9.542;2023-07-16T04:15:56;23.60;1.00
463;DHT22;218;51.902;9.542;2023-07-16T04:18:23;23.60;1.00
463;DHT22;218;51.902;9.542;2023-07-16T04:20:50;23.60;1.00
463;DHT22;218;51.902;9.542;2023-07-16T04:23:19;23.60;1.00
463;DHT22;218;51.902;9.542;2023-07-16T04:25:46;23.60;1.00
463;DHT22;218;51.902;9.542;2023-07-16T04:28:13;23.50;1.00
463;DHT22;218;51.902;9.542;2023-07-16T04:30:42;23.50;1.00
463;DHT22;218;51.902;9.542;2023-07-16T04:33:09;23.50;1.00
463;DHT22;218;51.902;9.542;2023-07-16T04:35:36;23.50;1.00
463;DHT22;218;51.902;9.542;2023-07-16T04:38:03;23.40;1.00
463;DHT22;218;51.902;9.542;2023-07-16T04:40:31;23.40;1.00
463;DHT22;218;51.902;9.542;2023-07-16T04:42:58;23.30;1.00
463;DHT22;218;51.902;9.542;2023-07-16T04:45:25;23.30;1.00
463;DHT22;218;51.902;9.542;2023-07-16T04:47:52;23.30;1.00
463;DHT22;218;51.902;9.542;2023-07-16T04:50:19;23.30;1.00
463;DHT22;218;51.902;9.542;2023-07-16T04:52:46;23.20;1.00
463;DHT22;218;51.902;9.542;2023-07-16T04:55:13;23.20;1.00
463;DHT22;218;51.902;9.542;2023-07-16T04:57:41;23.30;1.00
463;DHT22;218;51.902;9.542;2023-07-16T05:00:09;23.20;1.00
463;DHT22;218;51.902;9.542;2023-07-16T05:02:36;23.20;1.00
463;DHT22;218;51.902;9.542;2023-07-16T05:05:03;23.20;1.00
463;DHT22;218;51.902;9.542;2023-07-16T05:07:30;23.20;1.00
463;DHT22;218;51.902;9.542;2023-07-16T05:09:57;23.10;1.00
463;DHT22;218;51.902;9.542;2023-07-16T05:12:24;23.20;1.00
463;DHT22;218;51.902;9.542;2023-07-16T05:14:55;23.20;1.00
463;DHT22;218;51.902;9.542;2023-07-16T05:17:22;23.20;1.00
463;DHT22;218;51.902;9.542;2023-07-16T05:19:49;23.20;1.00
463;DHT22;218;51.902;9.542;2023-07-16T05:22:15;23.20;1.00
463;DHT22;218;51.902;9.542;2023-07-16T05:24:42;23.20;1.00
463;DHT22;218;51.902;9.542;2023-07-16T05:27:10;23.20;1.00
463;DHT22;218;51.902;9.542;2023-07-16T05:29:36;23.30;1.00
463;DHT22;218;51.902;9.542;2023-07-16T05:32:06;23.30;1.00
463;DHT22;218;51.902;9.542;2023-07-16T05:34:33;23.30;1.00
463;DHT22;218;51.902;9.542;2023-07-16T05:37:00;23.30;1.00
463;DHT22;218;51.902;9.542;2023-07-16T05:39:27;23.40;1.00
463;DHT22;218;51.902;9.542;2023-07-16T05:41:54;23.50;1.00
463;DHT22;218;51.902;9.542;2023-07-16T05:44:20;23.50;1.00
463;DHT22;218;51.902;9.542;2023-07-16T05:46:47;23.50;1.00
463;DHT22;218;51.902;9.542;2023-07-16T05:49:16;23.60;1.00
463;DHT22;218;51.902;9.542;2023-07-16T05:51:42;23.70;1.00
463;DHT22;218;51.902;9.542;2023-07-16T05:54:09;23.70;1.00
463;DHT22;218;51.902;9.542;2023-07-16T05:56:36;23.80;1.00
463;DHT22;218;51.902;9.542;2023-07-16T05:59:03;24.00;1.00
463;DHT22;218;51.902;9.542;2023-07-16T06:01:30;24.00;1.00
463;DHT22;218;51.902;9.542;2023-07-16T06:03:57;23.80;1.00
463;DHT22;218;51.902;9.542;2023-07-16T06:06:27;24.10;1.00
463;DHT22;218;51.902;9.542;2023-07-16T06:08:54;24.20;1.00
463;DHT22;218;51.902;9.542;2023-07-16T06:11:21;24.30;1.00
463;DHT22;218;51.902;9.542;2023-07-16T06:13:48;24.40;1.00
463;DHT22;218;51.902;9.542;2023-07-16T06:16:15;24.40;1.00
463;DHT22;218;51.902;9.542;2023-07-16T06:18:42;24.50;1.00
463;DHT22;218;51.902;9.542;2023-07-16T06:21:09;24.60;1.00
463;DHT22;218;51.902;9.542;2023-07-16T06:23:38;24.60;1.00
463;DHT22;218;51.902;9.542;2023-07-16T06:26:05;24.70;1.00
463;DHT22;218;51.902;9.542;2023-07-16T06:28:32;24.80;1.00
463;DHT22;218;51.902;9.542;2023-07-16T06:30:58;24.90;1.00
463;DHT22;218;51.902;9.542;2023-07-16T06:33:25;24.90;1.00
463;DHT22;218;51.902;9.542;2023-07-16T06:35:53;25.00;1.00
463;DHT22;218;51.902;9.542;2023-07-16T06:38:20;25.10;1.00
463;DHT22;218;51.902;9.542;2023-07-16T06:40:49;25.10;1.00
463;DHT22;218;51.902;9.542;2023-07-16T06:43:18;25.20;1.00
463;DHT22;218;51.902;9.542;2023-07-16T06:45:45;25.30;1.00
463;DHT22;218;51.902;9.542;2023-07-16T06:48:12;25.30;1.00
463;DHT22;218;51.902;9.542;2023-07-16T06:50:39;25.30;1.00
463;DHT22;218;51.902;9.542;2023-07-16T06:53:06;25.40;1.00
463;DHT22;218;51.902;9.542;2023-07-16T06:55:33;25.30;1.00
463;DHT22;218;51.902;9.542;2023-07-16T06:58:01;25.40;1.00
463;DHT22;218;51.902;9.542;2023-07-16T07:00:28;25.40;1.00
463;DHT22;218;51.902;9.542;2023-07-16T07:02:56;25.30;1.00
463;DHT22;218;51.902;9.542;2023-07-16T07:05:22;25.30;1.00
463;DHT22;218;51.902;9.542;2023-07-16T07:07:49;25.30;1.00
463;DHT22;218;51.902;9.542;2023-07-16T07:10:20;25.20;1.00
463;DHT22;218;51.902;9.542;2023-07-16T07:12:47;25.20;1.00
463;DHT22;218;51.902;9.542;2023-07-16T07:15:15;25.10;1.00
463;DHT22;218;51.902;9.542;2023-07-16T07:17:42;25.10;1.00
463;DHT22;218;51.902;9.542;2023-07-16T07:20:13;25.00;1.00
463;DHT22;218;51.902;9.542;2023-07-16T07:22:40;25.00;1.00
463;DHT22;218;51.902;9.542;2023-07-16T07:25:07;25.00;1.00
463;DHT22;218;51.902;9.542;2023-07-16T07:27:34;25.00;1.00
463;DHT22;218;51.902;9.542;2023-07-16T07:30:01;25.10;1.00
463;DHT22;218;51.902;9.542;2023-07-16T07:32:29;25.20;1.00
463;DHT22;218;51.902;9.542;2023-07-16T07:34:56;25.20;1.00
463;DHT22;218;51.902;9.542;2023-07-16T07:37:23;25.30;1.00
463;DHT22;218;51.902;9.542;2023-07-16T07:39:52;25.50;1.00
463;DHT22;218;51.902;9.542;2023-07-16T07:42:19;25.60;1.00
463;DHT22;218;51.902;9.542;2023-07-16T07:44:46;25.70;1.00
463;DHT22;218;51.902;9.542;2023-07-16T07:47:13;25.80;1.00
463;DHT22;218;51.902;9.542;2023-07-16T07:49:41;25.90;1.00
463;DHT22;218;51.902;9.542;2023-07-16T07:52:08;26.00;1.00
463;DHT22;218;51.902;9.542;2023-07-16T07:54:35;26.10;1.00
463;DHT22;218;51.902;9.542;2023-07-16T07:57:03;26.20;1.00
463;DHT22;218;51.902;9.542;2023-07-16T07:59:30;26.30;1.00
463;DHT22;218;51.902;9.542;2023-07-16T08:01:58;26.30;1.00
463;DHT22;218;51.902;9.542;2023-07-16T08:04:27;26.40;1.00
463;DHT22;218;51.902;9.542;2023-07-16T08:06:55;26.50;1.00
463;DHT22;218;51.902;9.542;2023-07-16T08:09:22;26.60;1.00
463;DHT22;218;51.902;9.542;2023-07-16T08:11:49;26.70;1.00
463;DHT22;218;51.902;9.542;2023-07-16T08:14:16;26.80;1.00
463;DHT22;218;51.902;9.542;2023-07-16T08:16:43;26.80;1.00
463;DHT22;218;51.902;9.542;2023-07-16T08:19:10;26.90;1.00
463;DHT22;218;51.902;9.542;2023-07-16T08:21:37;27.00;1.00
463;DHT22;218;51.902;9.542;2023-07-16T08:24:08;27.10;1.00
463;DHT22;218;51.902;9.542;2023-07-16T08:26:35;27.20;1.00
463;DHT22;218;51.902;9.542;2023-07-16T08:29:02;27.20;1.00
463;DHT22;218;51.902;9.542;2023-07-16T08:31:29;27.30;1.00
463;DHT22;218;51.902;9.542;2023-07-16T08:33:56;27.40;1.00
463;DHT22;218;51.902;9.542;2023-07-16T08:36:23;27.50;1.00
463;DHT22;218;51.902;9.542;2023-07-16T08:38:50;27.60;1.00
463;DHT22;218;51.902;9.542;2023-07-16T08:41:18;27.60;1.00
463;DHT22;218;51.902;9.542;2023-07-16T08:43:46;27.80;1.00
463;DHT22;218;51.902;9.542;2023-07-16T08:46:14;27.90;1.00
463;DHT22;218;51.902;9.542;2023-07-16T08:48:41;27.90;1.00
463;DHT22;218;51.902;9.542;2023-07-16T08:51:09;28.00;1.00
463;DHT22;218;51.902;9.542;2023-07-16T08:53:37;28.10;1.00
463;DHT22;218;51.902;9.542;2023-07-16T08:56:04;28.20;1.00
463;DHT22;218;51.902;9.542;2023-07-16T08:58:33;28.30;1.00
463;DHT22;218;51.902;9.542;2023-07-16T09:01:00;28.40;1.00
463;DHT22;218;51.902;9.542;2023-07-16T09:03:27;28.40;1.00
463;DHT22;218;51.902;9.542;2023-07-16T09:05:55;28.50;1.00
463;DHT22;218;51.902;9.542;2023-07-16T09:08:22;28.50;1.00
463;DHT22;218;51.902;9.542;2023-07-16T09:10:54;28.50;1.00
463;DHT22;218;51.902;9.542;2023-07-16T09:13:21;28.50;1.00
463;DHT22;218;51.902;9.542;2023-07-16T09:15:54;28.60;1.00
463;DHT22;218;51.902;9.542;2023-07-16T09:18:22;28.60;1.00
463;DHT22;218;51.902;9.542;2023-07-16T09:20:53;28.60;1.00
463;DHT22;218;51.902;9.542;2023-07-16T09:23:20;28.70;1.00
463;DHT22;218;51.902;9.542;2023-07-16T09:25:49;28.80;1.00
463;DHT22;218;51.902;9.542;2023-07-16T09:28:19;28.80;1.00
463;DHT22;218;51.902;9.542;2023-07-16T09:30:46;28.90;1.00
463;DHT22;218;51.902;9.542;2023-07-16T09:33:16;28.90;1.00
463;DHT22;218;51.902;9.542;2023-07-16T09:35:43;29.00;1.00
463;DHT22;218;51.902;9.542;2023-07-16T09:38:11;29.10;1.00
463;DHT22;218;51.902;9.542;2023-07-16T09:40:38;29.20;1.00
463;DHT22;218;51.902;9.542;2023-07-16T09:43:08;29.20;1.00
463;DHT22;218;51.902;9.542;2023-07-16T09:45:35;29.30;1.00
463;DHT22;218;51.902;9.542;2023-07-16T09:48:03;29.40;1.00
463;DHT22;218;51.902;9.542;2023-07-16T09:50:33;29.40;1.00
463;DHT22;218;51.902;9.542;2023-07-16T09:53:01;29.50;1.00
463;DHT22;218;51.902;9.542;2023-07-16T09:55:31;29.50;1.00
463;DHT22;218;51.902;9.542;2023-07-16T09:58:00;29.50;1.00
463;DHT22;218;51.902;9.542;2023-07-16T10:00:28;29.50;1.00
463;DHT22;218;51.902;9.542;2023-07-16T10:02:56;29.50;1.00
463;DHT22;218;51.902;9.542;2023-07-16T10:05:25;29.40;1.00
463;DHT22;218;51.902;9.542;2023-07-16T10:07:54;29.40;1.00
463;DHT22;218;51.902;9.542;2023-07-16T10:10:27;29.40;1.00
463;DHT22;218;51.902;9.542;2023-07-16T10:13:04;29.40;1.00
463;DHT22;218;51.902;9.542;2023-07-16T10:15:36;29.50;1.00
463;DHT22;218;51.902;9.542;2023-07-16T10:18:03;29.50;1.00
463;DHT22;218;51.902;9.542;2023-07-16T10:20:34;29.50;1.00
463;DHT22;218;51.902;9.542;2023-07-16T10:23:12;29.60;1.00
463;DHT22;218;51.902;9.542;2023-07-16T10:25:39;29.60;1.00
463;DHT22;218;51.902;9.542;2023-07-16T10:28:06;29.70;1.00
463;DHT22;218;51.902;9.542;2023-07-16T10:30:33;29.70;1.00
463;DHT22;218;51.902;9.542;2023-07-16T10:33:03;29.80;1.00
463;DHT22;218;51.902;9.542;2023-07-16T10:35:34;29.80;1.00
463;DHT22;218;51.902;9.542;2023-07-16T10:38:02;29.90;1.00
463;DHT22;218;51.902;9.542;2023-07-16T10:40:31;30.00;1.00
463;DHT22;218;51.902;9.542;2023-07-16T10:42:58;30.00;1.00
463;DHT22;218;51.902;9.542;2023-07-16T10:45:25;30.10;1.00
463;DHT22;218;51.902;9.542;2023-07-16T10:47:53;30.10;1.00
463;DHT22;218;51.902;9.542;2023-07-16T10:50:21;30.20;1.00
463;DHT22;218;51.902;9.542;2023-07-16T10:52:51;30.20;1.00
463;DHT22;218;51.902;9.542;2023-07-16T10:55:19;30.30;1.00
463;DHT22;218;51.902;9.542;2023-07-16T10:57:48;30.40;1.00
463;DHT22;218;51.902;9.542;2023-07-16T11:00:16;30.50;1.00
463;DHT22;218;51.902;9.542;2023-07-16T11:02:44;30.50;1.00
463;DHT22;218;51.902;9.542;2023-07-16T11:05:12;30.60;1.00
463;DHT22;218;51.902;9.542;2023-07-16T11:07:42;30.60;1.00
463;DHT22;218;51.902;9.542;2023-07-16T11:10:10;30.50;1.00
463;DHT22;218;51.902;9.542;2023-07-16T11:12:41;30.50;1.00
463;DHT22;218;51.902;9.542;2023-07-16T11:15:10;30.50;1.00
463;DHT22;218;51.902;9.542;2023-07-16T11:17:38;30.50;1.00
463;DHT22;218;51.902;9.542;2023-07-16T11:20:07;30.40;1.00
463;DHT22;218;51.902;9.542;2023-07-16T11:22:37;30.40;1.00
463;DHT22;218;51.902;9.542;2023-07-16T11:25:11;30.40;1.00
463;DHT22;218;51.902;9.542;2023-07-16T11:27:40;30.50;1.00
463;DHT22;218;51.902;9.542;2023-07-16T11:30:09;30.50;1.00
463;DHT22;218;51.902;9.542;2023-07-16T11:32:42;30.50;1.00
463;DHT22;218;51.902;9.542;2023-07-16T11:35:15;30.50;1.00
463;DHT22;218;51.902;9.542;2023-07-16T11:37:43;30.60;1.00
463;DHT22;218;51.902;9.542;2023-07-16T11:40:11;30.50;1.00
463;DHT22;218;51.902;9.542;2023-07-16T11:42:41;30.50;1.00
463;DHT22;218;51.902;9.542;2023-07-16T11:45:17;30.50;1.00
463;DHT22;218;51.902;9.542;2023-07-16T11:47:44;30.50;1.00
463;DHT22;218;51.902;9.542;2023-07-16T11:50:11;30.50;1.00
463;DHT22;218;51.902;9.542;2023-07-16T11:52:39;30.60;1.00
463;DHT22;218;51.902;9.542;2023-07-16T11:55:06;30.60;1.00
463;DHT22;218;51.902;9.542;2023-07-16T11:57:34;30.70;1.00
463;DHT22;218;51.902;9.542;2023-07-16T12:00:01;30.80;1.00
463;DHT22;218;51.902;9.542;2023-07-16T12:02:30;30.80;1.00
463;DHT22;218;51.902;9.542;2023-07-16T12:04:57;30.90;1.00
463;DHT22;218;51.902;9.542;2023-07-16T12:07:36;30.90;1.00
463;DHT22;218;51.902;9.542;2023-07-16T12:10:04;31.00;1.00
463;DHT22;218;51.902;9.542;2023-07-16T12:12:32;31.00;1.00
463;DHT22;218;51.902;9.542;2023-07-16T12:14:59;31.00;1.00
463;DHT22;218;51.902;9.542;2023-07-16T12:17:26;31.10;1.00
463;DHT22;218;51.902;9.542;2023-07-16T12:19:55;31.30;1.00
463;DHT22;218;51.902;9.542;2023-07-16T12:22:22;31.30;1.00
463;DHT22;218;51.902;9.542;2023-07-16T12:24:49;31.40;1.00
463;DHT22;218;51.902;9.542;2023-07-16T12:27:18;31.50;1.00
463;DHT22;218;51.902;9.542;2023-07-16T12:29:45;31.60;1.00
463;DHT22;218;51.902;9.542;2023-07-16T12:32:13;31.60;1.00
463;DHT22;218;51.902;9.542;2023-07-16T12:34:40;31.70;1.00
463;DHT22;218;51.902;9.542;2023-07-16T12:37:08;31.70;1.00
463;DHT22;218;51.902;9.542;2023-07-16T12:39:35;31.80;1.00
463;DHT22;218;51.902;9.542;2023-07-16T12:42:02;31.80;1.00
463;DHT22;218;51.902;9.542;2023-07-16T12:44:29;31.90;1.00
463;DHT22;218;51.902;9.542;2023-07-16T12:46:56;32.00;1.00
463;DHT22;218;51.902;9.542;2023-07-16T12:49:23;32.00;1.00
463;DHT22;218;51.902;9.542;2023-07-16T12:51:50;32.00;1.00
463;DHT22;218;51.902;9.542;2023-07-16T12:54:18;32.10;1.00
463;DHT22;218;51.902;9.542;2023-07-16T12:56:45;32.10;1.00
463;DHT22;218;51.902;9.542;2023-07-16T12:59:12;32.20;1.00
463;DHT22;218;51.902;9.542;2023-07-16T13:01:39;32.20;1.00
463;DHT22;218;51.902;9.542;2023-07-16T13:04:06;32.20;1.00
463;DHT22;218;51.902;9.542;2023-07-16T13:06:33;32.20;1.00
463;DHT22;218;51.902;9.542;2023-07-16T13:09:00;32.20;1.00
463;DHT22;218;51.902;9.542;2023-07-16T13:11:28;32.20;1.00
463;DHT22;218;51.902;9.542;2023-07-16T13:13:55;32.20;1.00
463;DHT22;218;51.902;9.542;2023-07-16T13:16:22;32.20;1.00
463;DHT22;218;51.902;9.542;2023-07-16T13:18:49;32.20;1.00
463;DHT22;218;51.902;9.542;2023-07-16T13:21:16;32.20;1.00
463;DHT22;218;51.902;9.542;2023-07-16T13:23:42;32.20;1.00
463;DHT22;218;51.902;9.542;2023-07-16T13:26:09;32.20;1.00
463;DHT22;218;51.902;9.542;2023-07-16T13:28:38;32.30;1.00
463;DHT22;218;51.902;9.542;2023-07-16T13:31:05;32.30;1.00
463;DHT22;218;51.902;9.542;2023-07-16T13:33:32;32.40;1.00
463;DHT22;218;51.902;9.542;2023-07-16T13:36:02;32.50;1.00
463;DHT22;218;51.902;9.542;2023-07-16T13:38:30;32.60;1.00
463;DHT22;218;51.902;9.542;2023-07-16T13:40:57;32.70;1.00
463;DHT22;218;51.902;9.542;2023-07-16T13:43:24;32.80;1.00
463;DHT22;218;51.902;9.542;2023-07-16T13:45:52;32.90;1.00
463;DHT22;218;51.902;9.542;2023-07-16T13:48:19;32.90;1.00
463;DHT22;218;51.902;9.542;2023-07-16T13:50:46;33.00;1.00
463;DHT22;218;51.902;9.542;2023-07-16T13:53:13;33.10;1.00
463;DHT22;218;51.902;9.542;2023-07-16T13:55:40;33.10;1.00
463;DHT22;218;51.902;9.542;2023-07-16T13:58:09;33.10;1.00
463;DHT22;218;51.902;9.542;2023-07-16T14:00:36;33.10;1.00
463;DHT22;218;51.902;9.542;2023-07-16T14:03:04;33.10;1.00
463;DHT22;218;51.902;9.542;2023-07-16T14:05:31;33.00;1.00
463;DHT22;218;51.902;9.542;2023-07-16T14:08:04;33.00;1.00
463;DHT22;218;51.902;9.542;2023-07-16T14:10:31;32.90;1.00
463;DHT22;218;51.902;9.542;2023-07-16T14:12:58;32.90;1.00
463;DHT22;218;51.902;9.542;2023-07-16T14:15:25;32.90;1.00
463;DHT22;218;51.902;9.542;2023-07-16T14:17:52;33.00;1.00
463;DHT22;218;51.902;9.542;2023-07-16T14:20:20;33.00;1.00
463;DHT22;218;51.902;9.542;2023-07-16T14:22:47;33.00;1.00
463;DHT22;218;51.902;9.542;2023-07-16T14:25:14;32.90;1.00
463;DHT22;218;51.902;9.542;2023-07-16T14:27:41;32.90;1.00
463;DHT22;218;51.902;9.542;2023-07-16T14:30:08;32.90;1.00
463;DHT22;218;51.902;9.542;2023-07-16T14:32:36;32.90;1.00
463;DHT22;218;51.902;9.542;2023-07-16T14:35:04;32.90;1.00
463;DHT22;218;51.902;9.542;2023-07-16T14:37:32;32.80;1.00
463;DHT22;218;51.902;9.542;2023-07-16T14:44:53;32.80;1.00
463;DHT22;218;51.902;9.542;2023-07-16T14:47:20;32.80;1.00
463;DHT22;218;51.902;9.542;2023-07-16T14:49:47;32.80;1.00
463;DHT22;218;51.902;9.542;2023-07-16T14:52:14;32.70;1.00
463;DHT22;218;51.902;9.542;2023-07-16T14:54:43;32.70;1.00
463;DHT22;218;51.902;9.542;2023-07-16T14:57:10;32.70;1.00
463;DHT22;218;51.902;9.542;2023-07-16T14:59:36;32.60;1.00
463;DHT22;218;51.902;9.542;2023-07-16T15:02:04;32.60;1.00
463;DHT22;218;51.902;9.542;2023-07-16T15:04:31;32.60;1.00
463;DHT22;218;51.902;9.542;2023-07-16T15:06:58;32.60;1.00
463;DHT22;218;51.902;9.542;2023-07-16T15:09:25;32.60;1.00
463;DHT22;218;51.902;9.542;2023-07-16T15:11:53;32.60;1.00
463;DHT22;218;51.902;9.542;2023-07-16T15:14:20;32.60;1.00
463;DHT22;218;51.902;9.542;2023-07-16T15:16:47;32.60;1.00
463;DHT22;218;51.902;9.542;2023-07-16T15:19:14;32.60;1.00
